createdAt,value
2023-06-19T00:01:39.932Z,99143.20
2023-06-19T00:04:07.940Z,99144.00
2023-06-19T00:06:35.972Z,99149.40
2023-06-19T00:09:04.489Z,99150.60
2023-06-19T00:11:32.552Z,99151.00
2023-06-19T00:14:00.921Z,99148.60
2023-06-19T00:16:28.876Z,99153.60
2023-06-19T00:18:56.902Z,99150.80
2023-06-19T00:21:25.989Z,99152.80
2023-06-19T00:23:54.328Z,99149.80
2023-06-19T00:26:26.486Z,99153.00
2023-06-19T00:28:54.425Z,99151.00
2023-06-19T00:31:23.694Z,99153.80
2023-06-19T00:33:51.833Z,99145.00
2023-06-19T00:36:21.614Z,99144.60
2023-06-19T00:38:49.611Z,99146.60
2023-06-19T00:41:18.265Z,99148.00
2023-06-19T00:43:46.692Z,99142.80
2023-06-19T00:46:14.600Z,99148.20
2023-06-19T00:48:42.635Z,99142.20
2023-06-19T00:51:10.791Z,99148.40
2023-06-19T00:53:40.623Z,99145.20
2023-06-19T00:56:08.671Z,99144.80
2023-06-19T00:58:36.639Z,99146.60
2023-06-19T01:01:09.579Z,99140.20
2023-06-19T01:03:38.618Z,99144.80
2023-06-19T01:06:15.611Z,99145.00
2023-06-19T01:09:02.132Z,99145.00
2023-06-19T01:11:38.802Z,99138.80
2023-06-19T01:14:19.758Z,99138.00
2023-06-19T01:16:48.818Z,99141.20
2023-06-19T01:19:21.215Z,99139.20
2023-06-19T01:21:49.796Z,99139.20
2023-06-19T01:24:17.782Z,99138.20
2023-06-19T01:26:47.040Z,99135.00
2023-06-19T01:29:15.397Z,99130.80
2023-06-19T01:31:53.776Z,99132.00
2023-06-19T01:34:21.793Z,99137.20
2023-06-19T01:36:50.772Z,99143.00
2023-06-19T01:39:19.211Z,99143.00
2023-06-19T01:41:47.535Z,99137.60
2023-06-19T01:44:16.064Z,99140.00
2023-06-19T01:46:51.881Z,99141.80
2023-06-19T01:49:20.318Z,99135.00
2023-06-19T01:51:48.332Z,99137.20
2023-06-19T01:54:16.210Z,99131.20
2023-06-19T01:56:44.524Z,99125.00
2023-06-19T01:59:12.448Z,99124.20
2023-06-19T02:01:40.420Z,99119.60
2023-06-19T02:04:08.591Z,99126.20
2023-06-19T02:06:38.772Z,99127.80
2023-06-19T02:09:08.554Z,99129.40
2023-06-19T02:11:40.047Z,99129.80
2023-06-19T02:14:10.480Z,99129.60
2023-06-19T02:16:38.724Z,99129.80
2023-06-19T02:19:06.792Z,99125.40
2023-06-19T02:21:34.584Z,99124.40
2023-06-19T02:24:02.520Z,99127.80
2023-06-19T02:26:30.527Z,99125.20
2023-06-19T02:28:58.368Z,99124.20
2023-06-19T02:31:26.396Z,99122.60
2023-06-19T02:33:54.276Z,99125.00
2023-06-19T02:36:22.117Z,99126.00
2023-06-19T02:38:50.146Z,99122.80
2023-06-19T02:41:19.629Z,99127.00
2023-06-19T02:43:48.298Z,99127.40
2023-06-19T02:46:16.290Z,99130.80
2023-06-19T02:48:44.248Z,99132.80
2023-06-19T02:51:12.161Z,99136.60
2023-06-19T02:53:40.082Z,99138.00
2023-06-19T02:56:08.853Z,99138.60
2023-06-19T02:58:38.683Z,99134.60
2023-06-19T03:01:10.055Z,99139.00
2023-06-19T03:03:38.881Z,99141.00
2023-06-19T03:06:07.532Z,99143.20
2023-06-19T03:08:36.890Z,99146.00
2023-06-19T03:11:06.229Z,99141.80
2023-06-19T03:13:48.228Z,99145.40
2023-06-19T03:16:16.219Z,99145.00
2023-06-19T03:18:50.737Z,99145.60
2023-06-19T03:21:23.193Z,99145.40
2023-06-19T03:23:51.494Z,99141.20
2023-06-19T03:26:26.025Z,99147.60
2023-06-19T03:28:54.352Z,99148.00
2023-06-19T03:31:24.587Z,99148.20
2023-06-19T03:33:53.205Z,99148.40
2023-06-19T03:36:22.098Z,99143.20
2023-06-19T03:38:51.197Z,99145.60
2023-06-19T03:41:21.919Z,99145.80
2023-06-19T03:43:49.872Z,99144.80
2023-06-19T03:46:18.228Z,99146.80
2023-06-19T03:48:46.215Z,99150.40
2023-06-19T03:51:14.370Z,99147.20
2023-06-19T03:53:43.478Z,99148.60
2023-06-19T03:56:11.492Z,99146.60
2023-06-19T03:58:39.506Z,99144.40
2023-06-19T04:01:07.480Z,99148.60
2023-06-19T04:03:35.410Z,99149.00
2023-06-19T04:06:03.885Z,99149.20
2023-06-19T04:08:31.683Z,99151.00
2023-06-19T04:10:59.658Z,99156.80
2023-06-19T04:13:29.878Z,99158.20
2023-06-19T04:15:57.809Z,99155.60
2023-06-19T04:18:25.810Z,99150.00
2023-06-19T04:20:53.660Z,99151.00
2023-06-19T04:23:21.517Z,99149.20
2023-06-19T04:25:49.508Z,99152.00
2023-06-19T04:28:17.433Z,99162.20
2023-06-19T04:30:45.394Z,99166.00
2023-06-19T04:33:13.352Z,99165.60
2023-06-19T04:35:41.620Z,99170.60
2023-06-19T04:38:10.907Z,99170.00
2023-06-19T04:40:38.880Z,99172.20
2023-06-19T04:43:07.076Z,99173.40
2023-06-19T04:45:35.122Z,99176.40
2023-06-19T04:48:04.746Z,99178.20
2023-06-19T04:50:32.756Z,99184.20
2023-06-19T04:53:00.762Z,99182.20
2023-06-19T04:55:28.723Z,99180.20
2023-06-19T04:57:56.603Z,99178.40
2023-06-19T05:00:25.236Z,99185.20
2023-06-19T05:02:53.541Z,99188.40
2023-06-19T05:05:24.374Z,99190.00
2023-06-19T05:07:53.404Z,99192.60
2023-06-19T05:10:21.476Z,99194.00
2023-06-19T05:12:49.608Z,99192.00
2023-06-19T05:15:17.615Z,99194.00
2023-06-19T05:17:47.738Z,99189.80
2023-06-19T05:20:16.632Z,99191.40
2023-06-19T05:22:44.781Z,99190.20
2023-06-19T05:25:12.660Z,99191.40
2023-06-19T05:27:41.070Z,99190.40
2023-06-19T05:30:09.707Z,99195.80
2023-06-19T05:32:37.571Z,99193.60
2023-06-19T05:35:06.149Z,99195.40
2023-06-19T05:37:34.077Z,99196.40
2023-06-19T05:40:02.178Z,99199.20
2023-06-19T05:42:30.162Z,99196.80
2023-06-19T05:44:58.265Z,99193.60
2023-06-19T05:47:27.134Z,99196.60
2023-06-19T05:49:55.108Z,99197.80
2023-06-19T05:52:23.016Z,99199.60
2023-06-19T05:54:51.094Z,99199.80
2023-06-19T05:57:22.189Z,99196.80
2023-06-19T05:59:50.447Z,99197.80
2023-06-19T06:02:20.258Z,99210.00
2023-06-19T06:04:48.496Z,99212.20
2023-06-19T06:07:16.547Z,99213.00
2023-06-19T06:09:44.371Z,99219.40
2023-06-19T06:12:12.920Z,99216.80
2023-06-19T06:14:42.874Z,99215.60
2023-06-19T06:17:11.289Z,99215.00
2023-06-19T06:19:40.086Z,99214.40
2023-06-19T06:22:08.370Z,99214.40
2023-06-19T06:24:36.340Z,99209.60
2023-06-19T06:27:04.887Z,99215.40
2023-06-19T06:29:32.768Z,99209.60
2023-06-19T06:32:08.435Z,99218.20
2023-06-19T06:34:36.312Z,99217.40
2023-06-19T06:37:06.391Z,99218.40
2023-06-19T06:39:35.044Z,99214.20
2023-06-19T06:42:03.275Z,99216.80
2023-06-19T06:44:31.179Z,99221.80
2023-06-19T06:46:59.133Z,99222.00
2023-06-19T06:49:26.930Z,99222.80
2023-06-19T06:51:56.809Z,99223.00
2023-06-19T06:54:25.982Z,99232.60
2023-06-19T06:56:57.724Z,99228.60
2023-06-19T06:59:26.509Z,99229.00
2023-06-19T07:01:58.163Z,99230.80
2023-06-19T07:04:26.624Z,99233.80
2023-06-19T07:06:54.611Z,99228.80
2023-06-19T07:09:22.791Z,99226.40
2023-06-19T07:11:53.497Z,99223.60
2023-06-19T07:14:22.072Z,99232.40
2023-06-19T07:16:51.557Z,99234.00
2023-06-19T07:19:19.535Z,99234.60
2023-06-19T07:21:47.497Z,99232.40
2023-06-19T07:24:15.926Z,99236.00
2023-06-19T07:26:43.930Z,99239.40
2023-06-19T07:29:11.765Z,99237.40
2023-06-19T07:31:39.761Z,99235.40
2023-06-19T07:34:08.104Z,99239.80
2023-06-19T07:36:36.050Z,99246.00
2023-06-19T07:39:04.010Z,99249.60
2023-06-19T07:41:31.877Z,99250.20
2023-06-19T07:44:00.122Z,99255.20
2023-06-19T07:46:28.084Z,99250.40
2023-06-19T07:48:55.945Z,99254.00
2023-06-19T07:51:23.778Z,99252.20
2023-06-19T07:53:51.609Z,99254.00
2023-06-19T07:56:19.429Z,99253.20
2023-06-19T07:58:48.214Z,99254.20
2023-06-19T08:01:17.056Z,99251.40
2023-06-19T08:03:47.095Z,99247.60
2023-06-19T08:06:15.312Z,99242.60
2023-06-19T08:08:43.125Z,99251.20
2023-06-19T08:11:11.492Z,99251.20
2023-06-19T08:13:39.401Z,99251.60
2023-06-19T08:16:08.027Z,99248.20
2023-06-19T08:18:35.933Z,99251.60
2023-06-19T08:21:03.904Z,99252.40
2023-06-19T08:23:36.052Z,99250.80
2023-06-19T08:26:04.413Z,99252.60
2023-06-19T08:28:33.552Z,99247.60
2023-06-19T08:31:01.858Z,99247.40
2023-06-19T08:33:29.780Z,99255.40
2023-06-19T08:35:57.663Z,99255.40
2023-06-19T08:38:25.572Z,99254.00
2023-06-19T08:40:53.368Z,99252.60
2023-06-19T08:43:21.259Z,99250.20
2023-06-19T08:46:06.436Z,99254.20
2023-06-19T08:48:37.341Z,99248.40
2023-06-19T08:51:05.883Z,99252.00
2023-06-19T08:53:55.905Z,99254.00
2023-06-19T08:56:24.154Z,99242.00
2023-06-19T08:58:52.348Z,99240.60
2023-06-19T09:01:28.073Z,99243.20
2023-06-19T09:03:56.175Z,99237.80
2023-06-19T09:06:24.569Z,99236.60
2023-06-19T09:09:01.072Z,99237.60
2023-06-19T09:11:29.512Z,99235.80
2023-06-19T09:13:59.660Z,99235.40
2023-06-19T09:16:41.829Z,99231.20
2023-06-19T09:19:10.208Z,99236.40
2023-06-19T09:21:40.747Z,99235.20
2023-06-19T09:24:09.304Z,99233.40
2023-06-19T09:26:40.097Z,99232.80
2023-06-19T09:29:15.893Z,99227.80
2023-06-19T09:31:45.773Z,99231.20
2023-06-19T09:34:14.032Z,99231.60
2023-06-19T09:36:43.294Z,99231.00
2023-06-19T09:39:12.272Z,99232.80
2023-06-19T09:41:41.425Z,99230.20
2023-06-19T09:44:13.595Z,99226.60
2023-06-19T09:46:42.408Z,99224.80
2023-06-19T09:49:10.287Z,99227.00
2023-06-19T09:51:39.186Z,99226.60
2023-06-19T09:54:07.867Z,99229.60
2023-06-19T09:56:35.774Z,99231.60
2023-06-19T09:59:04.120Z,99231.00
2023-06-19T10:01:32.466Z,99227.60
2023-06-19T10:04:09.822Z,99223.20
2023-06-19T10:06:47.912Z,99224.40
2023-06-19T10:09:19.308Z,99219.40
2023-06-19T10:11:53.680Z,99219.40
2023-06-19T10:14:22.630Z,99222.00
2023-06-19T10:16:50.862Z,99218.40
2023-06-19T10:19:21.944Z,99219.20
2023-06-19T10:21:53.876Z,99216.40
2023-06-19T10:24:22.263Z,99222.00
2023-06-19T10:27:01.400Z,99214.80
2023-06-19T10:29:45.312Z,99211.80
2023-06-19T10:32:24.815Z,99214.40
2023-06-19T10:34:52.602Z,99212.40
2023-06-19T10:37:33.479Z,99216.60
2023-06-19T10:40:01.400Z,99211.80
2023-06-19T10:42:29.399Z,99215.80
2023-06-19T10:45:11.125Z,99211.80
2023-06-19T10:47:40.448Z,99202.00
2023-06-19T10:50:15.374Z,99200.40
2023-06-19T10:52:46.668Z,99201.60
2023-06-19T10:55:14.797Z,99202.40
2023-06-19T10:57:46.962Z,99207.00
2023-06-19T11:00:44.596Z,99211.60
2023-06-19T11:03:12.837Z,99204.80
2023-06-19T11:05:45.230Z,99209.00
2023-06-19T11:08:19.592Z,99209.00
2023-06-19T11:10:47.550Z,99207.20
2023-06-19T11:13:17.069Z,99208.00
2023-06-19T11:15:45.130Z,99208.40
2023-06-19T11:18:13.083Z,99207.20
2023-06-19T11:20:50.812Z,99209.20
2023-06-19T11:23:27.181Z,99201.20
2023-06-19T11:25:55.100Z,99200.60
2023-06-19T11:28:23.405Z,99205.40
2023-06-19T11:31:00.135Z,99202.40
2023-06-19T11:33:28.133Z,99196.80
2023-06-19T11:35:56.166Z,99204.20
2023-06-19T11:38:27.248Z,99195.60
2023-06-19T11:40:56.468Z,99196.20
2023-06-19T11:43:29.642Z,99198.20
2023-06-19T11:46:09.002Z,99196.80
2023-06-19T11:48:38.499Z,99194.60
2023-06-19T11:51:06.775Z,99187.40
2023-06-19T11:53:36.502Z,99192.80
2023-06-19T11:56:04.553Z,99188.00
2023-06-19T11:58:32.409Z,99187.40
2023-06-19T12:01:00.350Z,99186.20
2023-06-19T12:03:28.622Z,99188.40
2023-06-19T12:05:56.817Z,99189.60
2023-06-19T12:08:24.705Z,99186.00
2023-06-19T12:10:53.095Z,99185.00
2023-06-19T12:13:21.109Z,99186.00
2023-06-19T12:15:48.957Z,99184.60
2023-06-19T12:18:16.853Z,99184.80
2023-06-19T12:20:44.714Z,99183.20
2023-06-19T12:23:12.973Z,99176.20
2023-06-19T12:25:41.188Z,99179.60
2023-06-19T12:28:09.546Z,99176.80
2023-06-19T12:30:37.556Z,99176.80
2023-06-19T12:33:05.625Z,99174.20
2023-06-19T12:35:33.513Z,99173.20
2023-06-19T12:38:01.386Z,99169.60
2023-06-19T12:40:29.259Z,99166.40
2023-06-19T12:42:56.995Z,99167.40
2023-06-19T12:45:25.054Z,99169.80
2023-06-19T12:47:55.831Z,99167.20
2023-06-19T12:50:24.231Z,99169.60
2023-06-19T12:52:52.198Z,99165.20
2023-06-19T12:55:20.125Z,99157.40
2023-06-19T12:57:48.047Z,99153.40
2023-06-19T13:00:16.202Z,99160.20
2023-06-19T13:02:44.503Z,99158.20
2023-06-19T13:05:12.457Z,99158.60
2023-06-19T13:07:40.361Z,99161.60
2023-06-19T13:10:08.686Z,99159.00
2023-06-19T13:12:36.606Z,99160.60
2023-06-19T13:15:05.034Z,99160.20
2023-06-19T13:17:32.808Z,99164.00
2023-06-19T13:20:00.634Z,99160.20
2023-06-19T13:22:28.603Z,99152.00
2023-06-19T13:24:56.458Z,99151.80
2023-06-19T13:27:24.399Z,99148.00
2023-06-19T13:29:52.267Z,99145.00
2023-06-19T13:32:20.125Z,99144.20
2023-06-19T13:34:48.075Z,99142.20
2023-06-19T13:37:16.005Z,99146.40
2023-06-19T13:39:44.075Z,99146.60
2023-06-19T13:42:12.294Z,99144.60
2023-06-19T13:44:40.169Z,99141.60
2023-06-19T13:47:08.294Z,99137.40
2023-06-19T13:49:36.221Z,99140.40
2023-06-19T13:52:04.427Z,99140.80
2023-06-19T13:54:32.410Z,99139.20
2023-06-19T13:57:00.495Z,99143.40
2023-06-19T13:59:28.332Z,99143.80
2023-06-19T14:01:56.309Z,99137.40
2023-06-19T14:04:24.172Z,99134.60
2023-06-19T14:06:52.522Z,99132.80
2023-06-19T14:09:20.454Z,99134.60
2023-06-19T14:11:48.630Z,99134.60
2023-06-19T14:14:16.526Z,99134.00
2023-06-19T14:16:44.369Z,99135.00
2023-06-19T14:19:12.300Z,99132.00
2023-06-19T14:21:40.124Z,99131.80
2023-06-19T14:24:08.130Z,99136.40
2023-06-19T14:26:36.122Z,99131.60
2023-06-19T14:29:04.024Z,99132.40
2023-06-19T14:31:31.915Z,99133.00
2023-06-19T14:33:59.872Z,99130.60
2023-06-19T14:36:27.759Z,99131.80
2023-06-19T14:38:55.685Z,99129.40
2023-06-19T14:41:23.612Z,99126.40
2023-06-19T14:43:51.469Z,99131.60
2023-06-19T14:46:36.842Z,99133.80
2023-06-19T14:49:12.140Z,99125.00
2023-06-19T14:51:40.329Z,99132.40
2023-06-19T14:54:08.668Z,99133.40
2023-06-19T14:56:36.492Z,99138.80
2023-06-19T14:59:04.792Z,99143.00
2023-06-19T15:01:32.695Z,99142.20
2023-06-19T15:04:00.709Z,99145.60
2023-06-19T15:06:28.709Z,99146.40
2023-06-19T15:08:57.676Z,99144.20
2023-06-19T15:11:27.002Z,99150.80
2023-06-19T15:13:54.881Z,99152.40
2023-06-19T15:16:27.446Z,99150.40
2023-06-19T15:18:55.618Z,99150.80
2023-06-19T15:21:23.791Z,99152.60
2023-06-19T15:23:55.263Z,99146.00
2023-06-19T15:26:24.222Z,99147.00
2023-06-19T15:28:54.855Z,99144.20
2023-06-19T15:31:24.012Z,99136.00
2023-06-19T15:33:52.140Z,99133.60
2023-06-19T15:36:20.163Z,99137.40
2023-06-19T15:38:48.101Z,99132.40
2023-06-19T15:41:16.009Z,99131.20
2023-06-19T15:43:43.961Z,99130.60
2023-06-19T15:46:16.703Z,99125.60
2023-06-19T15:48:44.830Z,99126.20
2023-06-19T15:51:12.902Z,99128.20
2023-06-19T15:53:40.971Z,99124.80
2023-06-19T15:56:09.466Z,99127.60
2023-06-19T15:58:38.118Z,99124.60
2023-06-19T16:01:05.992Z,99121.40
2023-06-19T16:03:35.521Z,99121.60
2023-06-19T16:06:07.844Z,99125.40
2023-06-19T16:08:37.009Z,99124.80
2023-06-19T16:11:06.340Z,99118.80
2023-06-19T16:13:34.757Z,99117.20
2023-06-19T16:16:03.640Z,99115.60
2023-06-19T16:18:31.696Z,99117.20
2023-06-19T16:21:00.668Z,99110.80
2023-06-19T16:23:28.507Z,99118.60
2023-06-19T16:25:56.741Z,99123.80
2023-06-19T16:28:24.658Z,99124.80
2023-06-19T16:30:52.486Z,99133.80
2023-06-19T16:33:20.529Z,99131.40
2023-06-19T16:35:48.412Z,99134.20
2023-06-19T16:38:16.378Z,99135.40
2023-06-19T16:40:44.587Z,99132.60
2023-06-19T16:43:13.414Z,99135.00
2023-06-19T16:45:41.194Z,99140.40
2023-06-19T16:48:09.117Z,99142.60
2023-06-19T16:50:37.257Z,99141.60
2023-06-19T16:53:07.306Z,99144.40
2023-06-19T16:55:35.296Z,99143.00
2023-06-19T16:58:03.189Z,99146.00
2023-06-19T17:00:31.426Z,99147.80
2023-06-19T17:02:59.520Z,99149.00
2023-06-19T17:05:27.954Z,99155.60
2023-06-19T17:07:56.062Z,99155.40
2023-06-19T17:10:24.600Z,99159.40
2023-06-19T17:12:52.817Z,99157.80
2023-06-19T17:15:20.773Z,99153.60
2023-06-19T17:17:48.780Z,99159.40
2023-06-19T17:20:16.699Z,99164.60
2023-06-19T17:22:44.559Z,99169.60
2023-06-19T17:25:12.494Z,99164.20
2023-06-19T17:27:40.265Z,99167.60
2023-06-19T17:30:10.457Z,99169.00
2023-06-19T17:32:39.391Z,99166.40
2023-06-19T17:35:10.255Z,99167.60
2023-06-19T17:37:38.915Z,99169.20
2023-06-19T17:40:08.962Z,99169.20
2023-06-19T17:42:37.745Z,99172.00
2023-06-19T17:45:07.018Z,99170.40
2023-06-19T17:47:34.940Z,99173.40
2023-06-19T17:50:02.807Z,99175.80
2023-06-19T17:52:30.785Z,99180.80
2023-06-19T17:54:58.765Z,99177.00
2023-06-19T17:57:27.285Z,99173.00
2023-06-19T17:59:55.616Z,99176.00
2023-06-19T18:02:23.632Z,99170.40
2023-06-19T18:04:51.686Z,99172.20
2023-06-19T18:07:19.722Z,99173.40
2023-06-19T18:09:48.632Z,99174.40
2023-06-19T18:12:16.832Z,99171.20
2023-06-19T18:14:47.885Z,99172.40
2023-06-19T18:17:16.413Z,99168.60
2023-06-19T18:19:44.567Z,99174.40
2023-06-19T18:22:12.495Z,99175.20
2023-06-19T18:24:40.548Z,99181.40
2023-06-19T18:27:08.398Z,99176.00
2023-06-19T18:29:36.375Z,99181.20
2023-06-19T18:32:04.664Z,99177.60
2023-06-19T18:34:32.647Z,99181.80
2023-06-19T18:37:00.557Z,99183.00
2023-06-19T18:39:28.437Z,99186.00
2023-06-19T18:41:56.361Z,99186.60
2023-06-19T18:44:24.203Z,99183.60
2023-06-19T18:46:52.162Z,99186.40
2023-06-19T18:49:20.069Z,99185.60
2023-06-19T18:51:47.828Z,99191.80
2023-06-19T18:54:16.075Z,99196.80
2023-06-19T18:56:45.056Z,99195.80
2023-06-19T18:59:13.041Z,99200.60
2023-06-19T19:01:41.061Z,99197.00
2023-06-19T19:04:09.050Z,99197.20
2023-06-19T19:06:36.943Z,99198.40
2023-06-19T19:09:08.453Z,99199.00
2023-06-19T19:11:36.236Z,99201.20
2023-06-19T19:14:04.276Z,99206.20
2023-06-19T19:16:32.198Z,99207.40
2023-06-19T19:19:00.089Z,99213.60
2023-06-19T19:21:28.445Z,99214.60
2023-06-19T19:23:56.305Z,99219.20
2023-06-19T19:26:24.178Z,99217.80
2023-06-19T19:28:52.156Z,99221.40
2023-06-19T19:31:20.127Z,99224.80
2023-06-19T19:33:47.995Z,99225.80
2023-06-19T19:36:16.617Z,99223.40
2023-06-19T19:38:44.429Z,99225.20
2023-06-19T19:41:12.226Z,99229.40
2023-06-19T19:43:40.050Z,99227.80
2023-06-19T19:46:07.969Z,99230.60
2023-06-19T19:48:35.939Z,99234.80
2023-06-19T19:51:04.026Z,99235.20
2023-06-19T19:53:31.896Z,99236.80
2023-06-19T19:55:59.859Z,99240.40
2023-06-19T19:58:27.848Z,99239.20
2023-06-19T20:00:55.843Z,99238.80
2023-06-19T20:03:23.742Z,99240.20
2023-06-19T20:05:51.796Z,99237.60
2023-06-19T20:08:19.702Z,99238.40
2023-06-19T20:10:48.132Z,99235.40
2023-06-19T20:13:16.131Z,99240.60
2023-06-19T20:15:44.056Z,99238.00
2023-06-19T20:18:12.009Z,99233.20
2023-06-19T20:20:40.061Z,99231.00
2023-06-19T20:23:07.817Z,99233.40
2023-06-19T20:25:35.716Z,99232.40
2023-06-19T20:28:08.730Z,99235.40
2023-06-19T20:30:37.114Z,99232.60
2023-06-19T20:33:05.234Z,99235.00
2023-06-19T20:35:33.256Z,99239.40
2023-06-19T20:38:01.062Z,99245.00
2023-06-19T20:40:29.076Z,99247.00
2023-06-19T20:42:56.965Z,99250.60
2023-06-19T20:45:27.419Z,99251.60
2023-06-19T20:47:55.737Z,99252.80
2023-06-19T20:50:24.094Z,99252.00
2023-06-19T20:52:52.252Z,99253.60
2023-06-19T20:55:20.198Z,99254.80
2023-06-19T20:57:48.136Z,99256.00
2023-06-19T21:00:16.450Z,99258.40
2023-06-19T21:02:45.227Z,99250.60
2023-06-19T21:05:16.417Z,99254.80
2023-06-19T21:07:45.846Z,99256.00
2023-06-19T21:10:13.930Z,99254.00
2023-06-19T21:12:41.764Z,99250.80
2023-06-19T21:15:10.140Z,99254.60
2023-06-19T21:17:38.148Z,99252.80
2023-06-19T21:20:10.494Z,99247.20
2023-06-19T21:22:39.156Z,99247.60
2023-06-19T21:25:07.441Z,99246.20
2023-06-19T21:27:35.408Z,99246.80
2023-06-19T21:30:05.300Z,99248.60
2023-06-19T21:32:33.287Z,99248.40
2023-06-19T21:35:01.283Z,99239.00
2023-06-19T21:37:30.208Z,99242.00
2023-06-19T21:39:58.023Z,99235.00
2023-06-19T21:42:26.173Z,99241.00
2023-06-19T21:44:54.091Z,99245.00
2023-06-19T21:47:21.997Z,99245.40
2023-06-19T21:49:49.949Z,99247.20
2023-06-19T21:52:17.772Z,99244.60
2023-06-19T21:54:45.666Z,99242.60
2023-06-19T21:57:13.574Z,99244.60
2023-06-19T21:59:41.397Z,99244.00
2023-06-19T22:02:11.736Z,99248.80
2023-06-19T22:04:39.575Z,99248.00
2023-06-19T22:07:07.898Z,99248.20
2023-06-19T22:09:35.729Z,99250.60
2023-06-19T22:12:04.211Z,99251.60
2023-06-19T22:14:38.936Z,99245.40
2023-06-19T22:17:07.997Z,99240.40
2023-06-19T22:19:38.393Z,99246.00
2023-06-19T22:22:07.548Z,99242.20
2023-06-19T22:24:37.650Z,99243.20
2023-06-19T22:27:06.898Z,99243.00
2023-06-19T22:29:34.700Z,99244.40
2023-06-19T22:32:03.176Z,99243.80
2023-06-19T22:34:31.698Z,99236.80
2023-06-19T22:36:59.604Z,99235.80
2023-06-19T22:39:28.290Z,99239.00
2023-06-19T22:41:56.193Z,99231.60
2023-06-19T22:44:23.976Z,99229.40
2023-06-19T22:46:51.843Z,99232.00
2023-06-19T22:49:19.699Z,99234.20
2023-06-19T22:51:47.736Z,99229.20
2023-06-19T22:54:15.835Z,99228.60
2023-06-19T22:56:43.747Z,99233.00
2023-06-19T22:59:12.204Z,99227.00
2023-06-19T23:01:40.128Z,99225.80
2023-06-19T23:04:10.494Z,99224.60
2023-06-19T23:06:45.868Z,99226.80
2023-06-19T23:09:14.249Z,99226.40
2023-06-19T23:11:42.253Z,99218.80
2023-06-19T23:14:10.271Z,99220.20
2023-06-19T23:16:41.930Z,99221.60
2023-06-19T23:19:10.199Z,99220.20
2023-06-19T23:21:38.194Z,99226.60
2023-06-19T23:24:06.289Z,99223.80
2023-06-19T23:26:35.248Z,99223.20
2023-06-19T23:29:03.742Z,99224.20
2023-06-19T23:31:31.545Z,99221.80
2023-06-19T23:34:02.354Z,99224.00
2023-06-19T23:36:30.211Z,99220.40
2023-06-19T23:38:58.136Z,99222.80
2023-06-19T23:41:26.067Z,99219.80
2023-06-19T23:43:53.857Z,99222.40
2023-06-19T23:46:21.709Z,99230.40
2023-06-19T23:48:49.667Z,99229.60
2023-06-19T23:51:17.535Z,99231.60
2023-06-19T23:53:45.449Z,99227.20
2023-06-19T23:56:13.395Z,99229.40
2023-06-19T23:58:41.233Z,99230.80
